sensor_id;sensor_type;location;lat;lon;timestamp;pressure;altitude;pressure_sealevel;temperature;humidity
62164;BME280;48149;51.132;7.178;2023-07-08T00:00:16;98831.66;;;34.76;28.76
62164;BME280;48149;51.132;7.178;2023-07-08T00:02:42;98825.63;;;33.11;30.47
62164;BME280;48149;51.132;7.178;2023-07-08T00:05:08;98822.28;;;34.47;28.92
62164;BME280;48149;51.132;7.178;2023-07-08T00:07:33;98824.28;;;35.40;27.82
62164;BME280;48149;51.132;7.178;2023-07-08T00:09:58;98825.56;;;34.11;28.77
62164;BME280;48149;51.132;7.178;2023-07-08T00:12:23;98824.53;;;33.54;29.71
62164;BME280;48149;51.132;7.178;2023-07-08T00:14:49;98815.09;;;34.36;28.89
62164;BME280;48149;51.132;7.178;2023-07-08T00:17:14;98810.75;;;33.86;29.58
62164;BME280;48149;51.132;7.178;2023-07-08T00:19:39;98807.53;;;33.19;30.02
62164;BME280;48149;51.132;7.178;2023-07-08T00:22:08;98809.53;;;33.03;30.84
62164;BME280;48149;51.132;7.178;2023-07-08T00:24:35;98802.09;;;33.38;29.77
62164;BME280;48149;51.132;7.178;2023-07-08T00:27:00;98802.13;;;33.19;29.88
62164;BME280;48149;51.132;7.178;2023-07-08T00:29:26;98809.88;;;32.16;31.50
62164;BME280;48149;51.132;7.178;2023-07-08T00:31:51;98811.16;;;31.91;31.45
62164;BME280;48149;51.132;7.178;2023-07-08T00:34:16;98808.72;;;32.83;30.30
62164;BME280;48149;51.132;7.178;2023-07-08T00:36:41;98808.59;;;33.53;29.89
62164;BME280;48149;51.132;7.178;2023-07-08T00:39:10;98804.91;;;34.55;28.23
62164;BME280;48149;51.132;7.178;2023-07-08T00:41:37;98798.56;;;33.15;29.72
62164;BME280;48149;51.132;7.178;2023-07-08T00:44:07;98802.41;;;34.43;28.49
62164;BME280;48149;51.132;7.178;2023-07-08T00:46:37;98808.59;;;33.95;28.66
62164;BME280;48149;51.132;7.178;2023-07-08T00:51:34;98802.91;;;34.52;27.87
62164;BME280;48149;51.132;7.178;2023-07-08T00:53:59;98797.06;;;34.01;28.16
62164;BME280;48149;51.132;7.178;2023-07-08T00:56:35;98790.19;;;33.62;28.77
62164;BME280;48149;51.132;7.178;2023-07-08T00:59:06;98790.94;;;34.83;28.11
62164;BME280;48149;51.132;7.178;2023-07-08T01:01:32;98787.78;;;33.38;29.21
62164;BME280;48149;51.132;7.178;2023-07-08T01:04:01;98784.44;;;33.25;29.57
62164;BME280;48149;51.132;7.178;2023-07-08T01:06:27;98789.38;;;33.04;29.80
62164;BME280;48149;51.132;7.178;2023-07-08T01:08:56;98791.44;;;32.06;30.58
62164;BME280;48149;51.132;7.178;2023-07-08T01:11:23;98783.47;;;32.29;30.56
62164;BME280;48149;51.132;7.178;2023-07-08T01:13:48;98785.56;;;32.35;30.16
62164;BME280;48149;51.132;7.178;2023-07-08T01:16:15;98783.84;;;33.16;29.80
62164;BME280;48149;51.132;7.178;2023-07-08T01:18:42;98780.00;;;33.59;29.37
62164;BME280;48149;51.132;7.178;2023-07-08T01:23:52;98785.91;;;32.84;29.88
62164;BME280;48149;51.132;7.178;2023-07-08T01:26:17;98779.94;;;32.79;30.16
62164;BME280;48149;51.132;7.178;2023-07-08T01:28:43;98771.22;;;34.11;28.10
62164;BME280;48149;51.132;7.178;2023-07-08T01:31:08;98785.66;;;33.08;29.78
62164;BME280;48149;51.132;7.178;2023-07-08T01:33:34;98781.75;;;34.12;28.95
62164;BME280;48149;51.132;7.178;2023-07-08T01:35:59;98777.53;;;32.73;30.19
62164;BME280;48149;51.132;7.178;2023-07-08T01:38:25;98777.03;;;33.64;29.06
62164;BME280;48149;51.132;7.178;2023-07-08T01:40:52;98770.53;;;32.92;29.61
62164;BME280;48149;51.132;7.178;2023-07-08T01:43:18;98766.66;;;33.08;29.45
62164;BME280;48149;51.132;7.178;2023-07-08T01:45:43;98768.41;;;32.82;30.11
62164;BME280;48149;51.132;7.178;2023-07-08T01:48:10;98768.91;;;33.06;29.83
62164;BME280;48149;51.132;7.178;2023-07-08T01:50:37;98769.75;;;32.06;30.38
62164;BME280;48149;51.132;7.178;2023-07-08T01:53:05;98770.41;;;33.04;29.54
62164;BME280;48149;51.132;7.178;2023-07-08T01:55:33;98774.28;;;32.02;30.78
62164;BME280;48149;51.132;7.178;2023-07-08T01:57:59;98768.69;;;33.76;28.45
62164;BME280;48149;51.132;7.178;2023-07-08T02:00:24;98766.00;;;32.96;29.56
62164;BME280;48149;51.132;7.178;2023-07-08T02:02:50;98765.22;;;31.07;31.73
62164;BME280;48149;51.132;7.178;2023-07-08T02:05:15;98767.09;;;30.79;32.50
62164;BME280;48149;51.132;7.178;2023-07-08T02:07:41;98767.56;;;31.80;31.58
62164;BME280;48149;51.132;7.178;2023-07-08T02:10:06;98766.00;;;31.63;31.70
62164;BME280;48149;51.132;7.178;2023-07-08T02:12:31;98751.16;;;32.90;30.29
62164;BME280;48149;51.132;7.178;2023-07-08T02:14:59;98748.63;;;32.62;31.11
62164;BME280;48149;51.132;7.178;2023-07-08T02:17:24;98764.47;;;31.50;31.06
62164;BME280;48149;51.132;7.178;2023-07-08T02:19:49;98749.97;;;32.91;29.60
62164;BME280;48149;51.132;7.178;2023-07-08T02:22:14;98753.56;;;32.25;30.17
62164;BME280;48149;51.132;7.178;2023-07-08T02:24:40;98752.28;;;30.25;33.25
62164;BME280;48149;51.132;7.178;2023-07-08T02:27:05;98759.25;;;31.02;32.05
62164;BME280;48149;51.132;7.178;2023-07-08T02:29:30;98756.09;;;31.55;31.50
62164;BME280;48149;51.132;7.178;2023-07-08T02:31:57;98744.84;;;32.16;30.88
62164;BME280;48149;51.132;7.178;2023-07-08T02:34:22;98753.25;;;31.36;31.14
62164;BME280;48149;51.132;7.178;2023-07-08T02:36:50;98749.34;;;31.06;32.23
62164;BME280;48149;51.132;7.178;2023-07-08T02:39:16;98741.38;;;30.97;32.05
62164;BME280;48149;51.132;7.178;2023-07-08T02:41:41;98742.59;;;30.48;32.56
62164;BME280;48149;51.132;7.178;2023-07-08T02:44:06;98743.03;;;31.30;32.00
62164;BME280;48149;51.132;7.178;2023-07-08T02:46:31;98740.72;;;31.16;31.80
62164;BME280;48149;51.132;7.178;2023-07-08T02:48:56;98742.97;;;31.42;31.37
62164;BME280;48149;51.132;7.178;2023-07-08T02:51:22;98742.44;;;33.00;29.78
62164;BME280;48149;51.132;7.178;2023-07-08T02:53:48;98741.56;;;33.34;29.17
62164;BME280;48149;51.132;7.178;2023-07-08T02:56:14;98743.88;;;32.74;29.49
62164;BME280;48149;51.132;7.178;2023-07-08T02:58:39;98749.41;;;33.01;29.40
62164;BME280;48149;51.132;7.178;2023-07-08T03:01:05;98749.78;;;33.38;28.97
62164;BME280;48149;51.132;7.178;2023-07-08T03:03:31;98749.47;;;32.00;30.67
62164;BME280;48149;51.132;7.178;2023-07-08T03:05:57;98751.84;;;32.87;29.94
62164;BME280;48149;51.132;7.178;2023-07-08T03:08:23;98747.72;;;32.73;29.21
62164;BME280;48149;51.132;7.178;2023-07-08T03:10:53;98754.84;;;32.47;30.09
62164;BME280;48149;51.132;7.178;2023-07-08T03:13:19;98750.31;;;32.35;29.62
62164;BME280;48149;51.132;7.178;2023-07-08T03:15:44;98745.13;;;31.80;30.25
62164;BME280;48149;51.132;7.178;2023-07-08T03:18:10;98740.94;;;32.48;29.77
62164;BME280;48149;51.132;7.178;2023-07-08T03:20:36;98741.53;;;31.60;31.42
62164;BME280;48149;51.132;7.178;2023-07-08T03:23:04;98748.16;;;31.19;31.20
62164;BME280;48149;51.132;7.178;2023-07-08T03:25:29;98742.16;;;30.34;32.71
62164;BME280;48149;51.132;7.178;2023-07-08T03:27:54;98750.53;;;31.36;31.27
62164;BME280;48149;51.132;7.178;2023-07-08T03:30:20;98745.22;;;32.14;30.25
62164;BME280;48149;51.132;7.178;2023-07-08T03:32:45;98750.47;;;31.33;31.39
62164;BME280;48149;51.132;7.178;2023-07-08T03:35:10;98748.81;;;31.44;31.01
62164;BME280;48149;51.132;7.178;2023-07-08T03:37:35;98753.63;;;30.55;32.55
62164;BME280;48149;51.132;7.178;2023-07-08T03:40:01;98755.75;;;31.57;31.77
62164;BME280;48149;51.132;7.178;2023-07-08T03:42:26;98754.94;;;31.13;32.21
62164;BME280;48149;51.132;7.178;2023-07-08T03:44:51;98750.25;;;31.69;31.41
62164;BME280;48149;51.132;7.178;2023-07-08T03:47:16;98758.47;;;31.29;31.38
62164;BME280;48149;51.132;7.178;2023-07-08T03:49:42;98762.84;;;30.66;31.38
62164;BME280;48149;51.132;7.178;2023-07-08T03:52:07;98763.88;;;31.57;30.95
62164;BME280;48149;51.132;7.178;2023-07-08T03:54:34;98756.22;;;30.51;32.19
62164;BME280;48149;51.132;7.178;2023-07-08T03:56:59;98762.97;;;30.45;32.87
62164;BME280;48149;51.132;7.178;2023-07-08T03:59:24;98765.22;;;30.55;32.47
62164;BME280;48149;51.132;7.178;2023-07-08T04:01:49;98771.84;;;31.38;31.89
62164;BME280;48149;51.132;7.178;2023-07-08T04:04:15;98767.91;;;30.55;32.22
62164;BME280;48149;51.132;7.178;2023-07-08T04:06:40;98774.34;;;31.90;31.17
62164;BME280;48149;51.132;7.178;2023-07-08T04:09:05;98772.66;;;32.13;30.28
62164;BME280;48149;51.132;7.178;2023-07-08T04:11:31;98777.84;;;31.75;31.10
62164;BME280;48149;51.132;7.178;2023-07-08T04:13:57;98772.34;;;32.49;30.17
62164;BME280;48149;51.132;7.178;2023-07-08T04:16:23;98770.72;;;32.13;30.29
62164;BME280;48149;51.132;7.178;2023-07-08T04:18:50;98778.53;;;31.28;31.26
62164;BME280;48149;51.132;7.178;2023-07-08T04:21:18;98775.84;;;31.71;30.70
62164;BME280;48149;51.132;7.178;2023-07-08T04:23:43;98772.53;;;32.95;29.19
62164;BME280;48149;51.132;7.178;2023-07-08T04:26:09;98779.78;;;31.74;30.61
62164;BME280;48149;51.132;7.178;2023-07-08T04:28:35;98785.28;;;31.78;31.14
62164;BME280;48149;51.132;7.178;2023-07-08T04:31:00;98781.06;;;32.08;30.90
62164;BME280;48149;51.132;7.178;2023-07-08T04:33:26;98777.47;;;32.89;30.02
62164;BME280;48149;51.132;7.178;2023-07-08T04:35:51;98784.81;;;32.89;30.09
62164;BME280;48149;51.132;7.178;2023-07-08T04:38:19;98780.31;;;31.95;30.96
62164;BME280;48149;51.132;7.178;2023-07-08T04:40:46;98781.22;;;32.65;30.48
62164;BME280;48149;51.132;7.178;2023-07-08T04:43:11;98773.72;;;33.13;30.06
62164;BME280;48149;51.132;7.178;2023-07-08T04:45:37;98780.41;;;31.67;31.60
62164;BME280;48149;51.132;7.178;2023-07-08T04:48:03;98775.84;;;31.71;31.61
62164;BME280;48149;51.132;7.178;2023-07-08T04:50:39;98779.09;;;32.94;30.31
62164;BME280;48149;51.132;7.178;2023-07-08T04:53:04;98777.03;;;33.45;29.90
62164;BME280;48149;51.132;7.178;2023-07-08T04:55:29;98779.03;;;32.71;30.57
62164;BME280;48149;51.132;7.178;2023-07-08T04:57:54;98785.13;;;32.33;31.02
62164;BME280;48149;51.132;7.178;2023-07-08T05:00:20;98780.81;;;32.83;30.65
62164;BME280;48149;51.132;7.178;2023-07-08T05:02:45;98775.69;;;34.00;28.93
62164;BME280;48149;51.132;7.178;2023-07-08T05:05:10;98779.75;;;34.36;29.06
62164;BME280;48149;51.132;7.178;2023-07-08T05:07:36;98785.09;;;33.60;30.07
62164;BME280;48149;51.132;7.178;2023-07-08T05:10:01;98782.53;;;34.39;28.28
62164;BME280;48149;51.132;7.178;2023-07-08T05:12:26;98784.88;;;33.69;29.48
62164;BME280;48149;51.132;7.178;2023-07-08T05:14:52;98791.28;;;33.80;28.87
62164;BME280;48149;51.132;7.178;2023-07-08T05:17:17;98787.69;;;32.96;30.99
62164;BME280;48149;51.132;7.178;2023-07-08T05:19:42;98791.38;;;33.45;29.88
62164;BME280;48149;51.132;7.178;2023-07-08T05:22:09;98796.94;;;32.95;31.26
62164;BME280;48149;51.132;7.178;2023-07-08T05:24:34;98787.47;;;33.62;30.26
62164;BME280;48149;51.132;7.178;2023-07-08T05:26:59;98782.72;;;33.17;30.21
62164;BME280;48149;51.132;7.178;2023-07-08T05:29:25;98793.81;;;32.07;31.94
62164;BME280;48149;51.132;7.178;2023-07-08T05:31:50;98794.19;;;31.35;32.67
62164;BME280;48149;51.132;7.178;2023-07-08T05:34:15;98792.50;;;32.17;31.68
62164;BME280;48149;51.132;7.178;2023-07-08T05:36:41;98799.28;;;31.52;33.37
62164;BME280;48149;51.132;7.178;2023-07-08T05:39:06;98782.66;;;31.97;32.70
62164;BME280;48149;51.132;7.178;2023-07-08T05:41:31;98784.97;;;32.10;31.75
62164;BME280;48149;51.132;7.178;2023-07-08T05:43:57;98785.88;;;33.61;30.32
62164;BME280;48149;51.132;7.178;2023-07-08T05:46:22;98780.06;;;33.82;29.91
62164;BME280;48149;51.132;7.178;2023-07-08T05:48:47;98781.25;;;33.04;30.51
62164;BME280;48149;51.132;7.178;2023-07-08T05:51:13;98780.00;;;33.17;30.41
62164;BME280;48149;51.132;7.178;2023-07-08T05:53:39;98776.59;;;32.50;31.13
62164;BME280;48149;51.132;7.178;2023-07-08T05:56:04;98780.97;;;34.12;29.59
62164;BME280;48149;51.132;7.178;2023-07-08T05:58:29;98779.53;;;33.53;29.94
62164;BME280;48149;51.132;7.178;2023-07-08T06:00:55;98780.00;;;33.59;30.89
62164;BME280;48149;51.132;7.178;2023-07-08T06:03:21;98780.81;;;33.59;30.27
62164;BME280;48149;51.132;7.178;2023-07-08T06:05:47;98780.00;;;33.59;29.44
62164;BME280;48149;51.132;7.178;2023-07-08T06:08:12;98783.38;;;33.71;30.02
62164;BME280;48149;51.132;7.178;2023-07-08T06:10:41;98785.66;;;33.08;31.19
62164;BME280;48149;51.132;7.178;2023-07-08T06:13:06;98784.69;;;33.39;30.03
62164;BME280;48149;51.132;7.178;2023-07-08T06:15:31;98791.09;;;34.15;29.65
62164;BME280;48149;51.132;7.178;2023-07-08T06:17:57;98791.38;;;34.85;29.33
62164;BME280;48149;51.132;7.178;2023-07-08T06:20:25;98795.41;;;35.28;27.84
62164;BME280;48149;51.132;7.178;2023-07-08T06:22:51;98790.97;;;34.57;29.22
62164;BME280;48149;51.132;7.178;2023-07-08T06:25:16;98793.84;;;34.67;28.79
62164;BME280;48149;51.132;7.178;2023-07-08T06:27:41;98801.25;;;34.70;29.39
62164;BME280;48149;51.132;7.178;2023-07-08T06:30:06;98795.31;;;34.91;29.18
62164;BME280;48149;51.132;7.178;2023-07-08T06:32:32;98797.38;;;34.19;30.38
62164;BME280;48149;51.132;7.178;2023-07-08T06:34:57;98795.78;;;34.67;29.04
62164;BME280;48149;51.132;7.178;2023-07-08T06:37:22;98789.88;;;34.61;29.56
62164;BME280;48149;51.132;7.178;2023-07-08T06:39:47;98796.63;;;35.34;28.63
62164;BME280;48149;51.132;7.178;2023-07-08T06:42:12;98783.09;;;34.78;28.99
62164;BME280;48149;51.132;7.178;2023-07-08T06:44:38;98798.88;;;35.62;29.95
62164;BME280;48149;51.132;7.178;2023-07-08T06:47:03;98780.94;;;34.91;27.95
62164;BME280;48149;51.132;7.178;2023-07-08T06:49:28;98782.47;;;34.88;29.26
62164;BME280;48149;51.132;7.178;2023-07-08T06:51:54;98779.50;;;34.70;29.78
62164;BME280;48149;51.132;7.178;2023-07-08T06:54:19;98787.84;;;35.14;29.15
62164;BME280;48149;51.132;7.178;2023-07-08T06:56:44;98790.06;;;35.75;28.70
62164;BME280;48149;51.132;7.178;2023-07-08T06:59:09;98798.34;;;35.49;28.60
62164;BME280;48149;51.132;7.178;2023-07-08T07:01:34;98788.53;;;36.80;27.93
62164;BME280;48149;51.132;7.178;2023-07-08T07:04:01;98799.44;;;36.22;27.90
62164;BME280;48149;51.132;7.178;2023-07-08T07:06:27;98787.94;;;35.99;28.06
62164;BME280;48149;51.132;7.178;2023-07-08T07:08:53;98789.19;;;34.68;28.74
62164;BME280;48149;51.132;7.178;2023-07-08T07:11:18;98789.97;;;35.61;28.60
62164;BME280;48149;51.132;7.178;2023-07-08T07:13:46;98793.28;;;35.11;27.63
62164;BME280;48149;51.132;7.178;2023-07-08T07:16:11;98786.31;;;35.91;28.12
62164;BME280;48149;51.132;7.178;2023-07-08T07:18:37;98790.06;;;35.75;27.76
62164;BME280;48149;51.132;7.178;2023-07-08T07:21:02;98796.44;;;36.37;26.75
62164;BME280;48149;51.132;7.178;2023-07-08T07:23:27;98801.00;;;36.23;27.84
62164;BME280;48149;51.132;7.178;2023-07-08T07:25:53;98806.59;;;37.06;26.31
62164;BME280;48149;51.132;7.178;2023-07-08T07:28:18;98799.34;;;38.72;25.55
62164;BME280;48149;51.132;7.178;2023-07-08T07:30:44;98808.25;;;37.38;25.89
62164;BME280;48149;51.132;7.178;2023-07-08T07:33:10;98812.34;;;36.86;26.91
62164;BME280;48149;51.132;7.178;2023-07-08T07:35:35;98808.31;;;38.90;24.71
62164;BME280;48149;51.132;7.178;2023-07-08T07:38:01;98808.31;;;38.87;24.43
62164;BME280;48149;51.132;7.178;2023-07-08T07:40:26;98818.16;;;38.21;26.81
62164;BME280;48149;51.132;7.178;2023-07-08T07:42:51;98817.78;;;38.15;25.66
62164;BME280;48149;51.132;7.178;2023-07-08T07:45:16;98816.22;;;38.46;24.84
62164;BME280;48149;51.132;7.178;2023-07-08T07:47:42;98820.13;;;38.20;25.36
62164;BME280;48149;51.132;7.178;2023-07-08T07:50:07;98828.25;;;37.57;25.87
62164;BME280;48149;51.132;7.178;2023-07-08T07:52:42;98826.28;;;37.47;26.45
62164;BME280;48149;51.132;7.178;2023-07-08T07:55:08;98821.66;;;37.72;25.46
62164;BME280;48149;51.132;7.178;2023-07-08T07:57:33;98811.41;;;37.37;25.42
62164;BME280;48149;51.132;7.178;2023-07-08T07:59:58;98813.81;;;36.70;27.10
62164;BME280;48149;51.132;7.178;2023-07-08T08:02:27;98822.00;;;38.90;24.37
62164;BME280;48149;51.132;7.178;2023-07-08T08:04:52;98822.66;;;39.23;24.97
62164;BME280;48149;51.132;7.178;2023-07-08T08:07:23;98823.97;;;37.73;25.36
62164;BME280;48149;51.132;7.178;2023-07-08T08:09:48;98837.19;;;37.47;27.37
62164;BME280;48149;51.132;7.178;2023-07-08T08:12:14;98834.09;;;38.97;24.85
62164;BME280;48149;51.132;7.178;2023-07-08T08:14:39;98838.00;;;37.51;25.61
62164;BME280;48149;51.132;7.178;2023-07-08T08:17:04;98837.94;;;39.17;24.62
62164;BME280;48149;51.132;7.178;2023-07-08T08:19:30;98840.44;;;38.02;25.77
62164;BME280;48149;51.132;7.178;2023-07-08T08:21:56;98853.72;;;36.41;27.35
62164;BME280;48149;51.132;7.178;2023-07-08T08:24:21;98846.88;;;36.61;27.27
62164;BME280;48149;51.132;7.178;2023-07-08T08:26:47;98844.44;;;36.49;28.13
62164;BME280;48149;51.132;7.178;2023-07-08T08:29:12;98839.38;;;37.09;27.79
62164;BME280;48149;51.132;7.178;2023-07-08T08:31:37;98842.31;;;37.59;27.00
62164;BME280;48149;51.132;7.178;2023-07-08T08:34:03;98843.72;;;37.21;27.46
62164;BME280;48149;51.132;7.178;2023-07-08T08:36:28;98838.09;;;37.93;26.50
62164;BME280;48149;51.132;7.178;2023-07-08T08:38:53;98836.47;;;37.71;28.46
62164;BME280;48149;51.132;7.178;2023-07-08T08:41:30;98838.00;;;37.47;26.76
62164;BME280;48149;51.132;7.178;2023-07-08T08:43:56;98843.50;;;38.74;27.24
62164;BME280;48149;51.132;7.178;2023-07-08T08:46:34;98842.66;;;39.06;26.64
62164;BME280;48149;51.132;7.178;2023-07-08T08:51:28;98847.50;;;40.22;25.09
62164;BME280;48149;51.132;7.178;2023-07-08T08:53:56;98840.22;;;39.36;25.53
62164;BME280;48149;51.132;7.178;2023-07-08T08:56:25;98837.28;;;38.67;26.30
62164;BME280;48149;51.132;7.178;2023-07-08T08:59:02;98831.03;;;37.88;27.98
62164;BME280;48149;51.132;7.178;2023-07-08T09:01:30;98832.63;;;38.14;25.54
62164;BME280;48149;51.132;7.178;2023-07-08T09:03:57;98825.81;;;37.30;27.07
62164;BME280;48149;51.132;7.178;2023-07-08T09:06:28;98839.75;;;39.48;26.03
62164;BME280;48149;51.132;7.178;2023-07-08T09:08:54;98844.53;;;37.32;28.02
62164;BME280;48149;51.132;7.178;2023-07-08T09:11:34;98839.66;;;37.94;26.50
62164;BME280;48149;51.132;7.178;2023-07-08T09:14:01;98850.19;;;38.34;26.89
62164;BME280;48149;51.132;7.178;2023-07-08T09:19:27;98854.50;;;38.25;26.22
62164;BME280;48149;51.132;7.178;2023-07-08T09:27:12;98850.16;;;37.85;26.77
62164;BME280;48149;51.132;7.178;2023-07-08T09:29:37;98859.13;;;37.75;26.96
62164;BME280;48149;51.132;7.178;2023-07-08T09:32:14;98854.25;;;37.19;27.66
62164;BME280;48149;51.132;7.178;2023-07-08T09:34:41;98855.66;;;38.03;26.36
62164;BME280;48149;51.132;7.178;2023-07-08T09:40:15;98859.66;;;39.59;26.27
62164;BME280;48149;51.132;7.178;2023-07-08T09:42:44;98857.06;;;39.31;25.88
62164;BME280;48149;51.132;7.178;2023-07-08T09:45:12;98848.03;;;39.34;27.86
62164;BME280;48149;51.132;7.178;2023-07-08T09:47:38;98857.56;;;40.39;25.42
62164;BME280;48149;51.132;7.178;2023-07-08T09:52:43;98858.38;;;38.84;26.20
62164;BME280;48149;51.132;7.178;2023-07-08T09:55:10;98857.63;;;38.62;26.98
62164;BME280;48149;51.132;7.178;2023-07-08T09:57:36;98858.75;;;37.83;27.70
62164;BME280;48149;51.132;7.178;2023-07-08T10:00:08;98852.53;;;39.76;25.28
62164;BME280;48149;51.132;7.178;2023-07-08T10:03:37;98854.19;;;41.37;23.05
62164;BME280;48149;51.132;7.178;2023-07-08T10:05:38;98855.50;;;43.38;21.75
62164;BME280;48149;51.132;7.178;2023-07-08T10:08:14;98852.81;;;43.54;22.11
62164;BME280;48149;51.132;7.178;2023-07-08T10:10:39;98846.44;;;43.73;21.31
62164;BME280;48149;51.132;7.178;2023-07-08T10:13:17;98843.81;;;44.79;20.17
62164;BME280;48149;51.132;7.178;2023-07-08T10:15:44;98839.59;;;44.30;21.05
62164;BME280;48149;51.132;7.178;2023-07-08T10:18:13;98837.38;;;44.98;20.13
62164;BME280;48149;51.132;7.178;2023-07-08T10:20:45;98848.13;;;45.09;20.16
62164;BME280;48149;51.132;7.178;2023-07-08T10:23:29;98841.78;;;46.13;20.16
62164;BME280;48149;51.132;7.178;2023-07-08T10:26:06;98850.84;;;44.96;20.03
62164;BME280;48149;51.132;7.178;2023-07-08T10:31:27;98834.94;;;47.17;19.81
62164;BME280;48149;51.132;7.178;2023-07-08T10:36:42;98829.06;;;46.72;18.58
62164;BME280;48149;51.132;7.178;2023-07-08T10:39:20;98822.50;;;45.97;21.13
62164;BME280;48149;51.132;7.178;2023-07-08T10:44:21;98808.22;;;44.52;22.04
62164;BME280;48149;51.132;7.178;2023-07-08T10:47:00;98827.94;;;47.65;19.35
62164;BME280;48149;51.132;7.178;2023-07-08T10:49:42;98815.97;;;46.72;19.47
62164;BME280;48149;51.132;7.178;2023-07-08T11:07:51;98810.13;;;51.16;17.09
62164;BME280;48149;51.132;7.178;2023-07-08T11:10:29;98810.94;;;49.03;18.12
62164;BME280;48149;51.132;7.178;2023-07-08T11:12:59;98809.59;;;49.73;16.93
62164;BME280;48149;51.132;7.178;2023-07-08T11:15:28;98811.44;;;48.56;17.66
62164;BME280;48149;51.132;7.178;2023-07-08T11:17:57;98803.78;;;51.15;17.02
62164;BME280;48149;51.132;7.178;2023-07-08T11:25:48;98796.50;;;51.88;16.32
62164;BME280;48149;51.132;7.178;2023-07-08T11:28:15;98801.13;;;51.56;15.71
62164;BME280;48149;51.132;7.178;2023-07-08T11:30:42;98796.47;;;51.67;16.73
62164;BME280;48149;51.132;7.178;2023-07-08T11:33:10;98798.22;;;51.15;18.14
62164;BME280;48149;51.132;7.178;2023-07-08T11:35:37;98809.19;;;49.89;17.26
62164;BME280;48149;51.132;7.178;2023-07-08T11:38:05;98792.94;;;49.88;17.68
62164;BME280;48149;51.132;7.178;2023-07-08T11:40:31;98791.03;;;50.41;17.47
62164;BME280;48149;51.132;7.178;2023-07-08T11:43:03;98795.44;;;51.15;15.42
62164;BME280;48149;51.132;7.178;2023-07-08T11:45:37;98799.44;;;51.64;15.54
62164;BME280;48149;51.132;7.178;2023-07-08T11:48:04;98778.41;;;50.84;17.06
62164;BME280;48149;51.132;7.178;2023-07-08T11:50:32;98784.78;;;50.32;16.57
62164;BME280;48149;51.132;7.178;2023-07-08T11:53:06;98783.94;;;51.43;15.89
62164;BME280;48149;51.132;7.178;2023-07-08T11:55:42;98777.31;;;51.75;15.82
62164;BME280;48149;51.132;7.178;2023-07-08T11:58:08;98779.13;;;52.18;15.51
62164;BME280;48149;51.132;7.178;2023-07-08T12:00:40;98782.38;;;49.77;16.45
62164;BME280;48149;51.132;7.178;2023-07-08T12:03:19;98774.56;;;50.29;16.56
62164;BME280;48149;51.132;7.178;2023-07-08T12:05:45;98772.72;;;50.11;16.23
62164;BME280;48149;51.132;7.178;2023-07-08T12:08:12;98775.28;;;51.76;15.31
62164;BME280;48149;51.132;7.178;2023-07-08T12:10:38;98782.97;;;51.46;16.30
62164;BME280;48149;51.132;7.178;2023-07-08T12:13:09;98780.75;;;52.31;16.55
62164;BME280;48149;51.132;7.178;2023-07-08T12:15:36;98780.25;;;53.41;15.64
62164;BME280;48149;51.132;7.178;2023-07-08T12:18:02;98774.19;;;50.74;15.50
62164;BME280;48149;51.132;7.178;2023-07-08T12:20:33;98775.69;;;51.34;15.68
62164;BME280;48149;51.132;7.178;2023-07-08T12:23:01;98775.81;;;51.80;15.08
62164;BME280;48149;51.132;7.178;2023-07-08T12:25:29;98774.16;;;51.18;16.47
62164;BME280;48149;51.132;7.178;2023-07-08T12:27:55;98771.22;;;52.89;15.08
62164;BME280;48149;51.132;7.178;2023-07-08T12:30:22;98773.25;;;52.16;16.67
62164;BME280;48149;51.132;7.178;2023-07-08T12:32:48;98770.34;;;53.08;15.12
62164;BME280;48149;51.132;7.178;2023-07-08T12:35:24;98772.13;;;52.29;15.49
62164;BME280;48149;51.132;7.178;2023-07-08T12:37:58;98769.47;;;50.80;17.38
62164;BME280;48149;51.132;7.178;2023-07-08T12:40:27;98760.84;;;52.43;15.45
62164;BME280;48149;51.132;7.178;2023-07-08T12:42:54;98758.59;;;53.36;15.16
62164;BME280;48149;51.132;7.178;2023-07-08T12:45:20;98764.50;;;53.43;15.31
62164;BME280;48149;51.132;7.178;2023-07-08T12:47:47;98769.34;;;52.80;15.83
62164;BME280;48149;51.132;7.178;2023-07-08T12:50:14;98761.13;;;54.63;13.45
62164;BME280;48149;51.132;7.178;2023-07-08T12:52:41;98757.31;;;53.85;15.04
62164;BME280;48149;51.132;7.178;2023-07-08T12:55:08;98758.84;;;53.80;14.28
62164;BME280;48149;51.132;7.178;2023-07-08T12:57:37;98758.25;;;55.63;14.08
62164;BME280;48149;51.132;7.178;2023-07-08T13:00:02;98762.41;;;55.17;14.22
62164;BME280;48149;51.132;7.178;2023-07-08T13:02:29;98761.09;;;54.41;14.65
62164;BME280;48149;51.132;7.178;2023-07-08T13:04:57;98762.25;;;53.53;14.26
62164;BME280;48149;51.132;7.178;2023-07-08T13:07:25;98764.75;;;51.15;16.00
62164;BME280;48149;51.132;7.178;2023-07-08T13:09:53;98756.69;;;52.59;15.20
62164;BME280;48149;51.132;7.178;2023-07-08T13:12:19;98755.41;;;53.17;15.96
62164;BME280;48149;51.132;7.178;2023-07-08T13:14:48;98754.47;;;51.77;16.06
62164;BME280;48149;51.132;7.178;2023-07-08T13:17:14;98749.22;;;52.50;14.72
62164;BME280;48149;51.132;7.178;2023-07-08T13:19:40;98763.97;;;49.05;17.41
62164;BME280;48149;51.132;7.178;2023-07-08T13:22:08;98759.47;;;51.52;15.37
62164;BME280;48149;51.132;7.178;2023-07-08T13:24:34;98757.25;;;51.56;16.14
62164;BME280;48149;51.132;7.178;2023-07-08T13:26:59;98754.66;;;52.34;15.68
62164;BME280;48149;51.132;7.178;2023-07-08T13:29:33;98757.81;;;53.30;14.63
62164;BME280;48149;51.132;7.178;2023-07-08T13:32:04;98763.94;;;52.25;14.74
62164;BME280;48149;51.132;7.178;2023-07-08T13:34:30;98760.16;;;53.90;15.77
62164;BME280;48149;51.132;7.178;2023-07-08T13:36:57;98757.50;;;52.39;16.40
62164;BME280;48149;51.132;7.178;2023-07-08T13:39:26;98752.25;;;50.82;16.28
62164;BME280;48149;51.132;7.178;2023-07-08T13:41:53;98751.00;;;53.05;15.35
62164;BME280;48149;51.132;7.178;2023-07-08T13:44:19;98751.59;;;52.57;15.67
62164;BME280;48149;51.132;7.178;2023-07-08T13:46:46;98765.69;;;51.82;16.13
62164;BME280;48149;51.132;7.178;2023-07-08T13:51:48;98765.88;;;50.36;18.09